SLRI/RIB METAR and TAF weather

Enter ICAO airport designator
Station Type Date Time Source
SLRI METAR 2022/06/28 23:00 UTC NOAA

SLRI 282300Z 00000KT 9999 NSC 28/22 Q1014


Station Type Date Time Source
SLRI Decoded METAR 2022/06/28 23:00 UTC NOAA

Riberalta, Bolivia (SLRI) 11-00S 066-07W
Jun 28, 2022 - 07:00 PM EDT / 2022.06.28 2300 UTC
Wind: Calm:0
Visibility: greater than 7 mile(s):0
Temperature: 82 F (28 C)
Dew Point: 71 F (22 C)
Relative Humidity: 69%
Pressure (altimeter): 29.94 in. Hg (1014 hPa)
ob: SLRI 282300Z 00000KT 9999 NSC 28/22 Q1014
cycle: 23

Station Type Date Time Source
SLRI TAF 2015/11/18 00:29 UTC NOAA

TAF SLRI 182200Z 1900/1924 00000KT 9999 FEW015 TX37/1919Z TN23/1910Z
BECMG 1912/1914 33011KT SCT020
TEMPO 1919/1922 8000 VCSH FEW020 FEW023CB BKN080

Example: see airport list